createdAt,value
2019-04-20T00:00:23.763Z,59.30
2019-04-20T00:02:59.708Z,59.60
2019-04-20T00:05:33.096Z,59.70
2019-04-20T00:08:15.067Z,59.20
2019-04-20T00:10:52.277Z,58.70
2019-04-20T00:13:30.258Z,58.90
2019-04-20T00:15:53.624Z,58.80
2019-04-20T00:18:36.913Z,59.10
2019-04-20T00:21:20.903Z,59.00
2019-04-20T00:23:56.590Z,58.80
2019-04-20T00:27:00.666Z,58.70
2019-04-20T00:29:27.737Z,59.00
2019-04-20T00:31:55.613Z,58.80
2019-04-20T00:34:27.907Z,58.60
2019-04-20T00:36:54.078Z,58.40
2019-04-20T00:39:27.970Z,58.30
2019-04-20T00:42:06.582Z,58.40
2019-04-20T00:44:39.513Z,58.80
2019-04-20T00:47:27.478Z,59.00
2019-04-20T00:50:04.099Z,59.00
2019-04-20T00:52:35.639Z,59.70
2019-04-20T00:55:00.086Z,59.80
2019-04-20T00:57:41.764Z,60.20
2019-04-20T01:00:27.361Z,60.40
2019-04-20T01:02:54.237Z,60.50
2019-04-20T01:05:53.016Z,60.70
2019-04-20T01:08:17.127Z,60.70
2019-04-20T01:10:54.176Z,60.70
2019-04-20T01:13:27.157Z,61.00
2019-04-20T01:16:08.729Z,61.70
2019-04-20T01:18:37.037Z,61.90
2019-04-20T01:21:16.502Z,62.20
2019-04-20T01:23:51.251Z,62.30
2019-04-20T01:26:22.650Z,63.00
2019-04-20T01:29:09.132Z,63.60
2019-04-20T01:31:38.340Z,64.90
2019-04-20T01:34:22.972Z,66.20
2019-04-20T01:36:56.013Z,66.20
2019-04-20T01:39:27.657Z,66.80
2019-04-20T01:41:54.045Z,66.40
2019-04-20T01:44:35.646Z,66.50
2019-04-20T01:47:06.331Z,65.80
2019-04-20T01:49:40.250Z,66.20
2019-04-20T01:52:20.055Z,66.30
2019-04-20T01:55:28.831Z,66.20
2019-04-20T01:58:06.119Z,67.00
2019-04-20T02:00:44.940Z,66.90
2019-04-20T02:03:31.151Z,67.40
2019-04-20T02:06:09.865Z,67.60
2019-04-20T02:08:40.104Z,67.50
2019-04-20T02:11:21.279Z,68.00
2019-04-20T02:13:55.126Z,67.80
2019-04-20T02:16:34.924Z,67.60
2019-04-20T02:19:13.871Z,68.00
2019-04-20T02:21:51.672Z,68.00
2019-04-20T02:24:12.659Z,68.20
2019-04-20T02:26:47.225Z,68.00
2019-04-20T02:29:48.916Z,68.10
2019-04-20T02:32:23.809Z,67.70
2019-04-20T02:34:59.272Z,67.80
2019-04-20T02:40:21.153Z,68.90
2019-04-20T02:42:59.810Z,68.60
2019-04-20T02:45:33.337Z,68.60
2019-04-20T02:48:13.990Z,68.90
2019-04-20T02:50:44.568Z,69.40
2019-04-20T02:53:41.421Z,68.80
2019-04-20T02:58:27.134Z,69.30
2019-04-20T03:00:57.126Z,69.00
2019-04-20T03:03:17.014Z,69.70
2019-04-20T03:05:52.054Z,69.60
2019-04-20T03:08:30.527Z,69.80
2019-04-20T03:11:16.162Z,69.60
2019-04-20T03:13:50.220Z,69.10
2019-04-20T03:16:20.442Z,69.40
2019-04-20T03:18:53.742Z,70.00
2019-04-20T03:21:39.358Z,69.90
2019-04-20T03:24:12.676Z,69.80
2019-04-20T03:26:51.539Z,70.00
2019-04-20T03:29:24.534Z,70.80
2019-04-20T03:37:27.888Z,71.90
2019-04-20T03:39:52.966Z,71.90
2019-04-20T03:42:12.596Z,71.70
2019-04-20T03:44:52.946Z,71.60
2019-04-20T03:47:33.779Z,71.40
2019-04-20T03:50:24.947Z,71.40
2019-04-20T03:53:04.422Z,71.90
2019-04-20T03:55:37.040Z,71.40
2019-04-20T03:58:18.818Z,72.20
2019-04-20T04:00:57.280Z,72.40
2019-04-20T04:03:47.374Z,72.80
2019-04-20T04:06:09.583Z,72.60
2019-04-20T04:08:39.430Z,73.10
2019-04-20T04:11:27.658Z,73.00
2019-04-20T04:13:44.226Z,73.00
2019-04-20T04:16:20.722Z,72.30
2019-04-20T04:19:01.395Z,72.80
2019-04-20T04:21:44.708Z,72.50
2019-04-20T04:24:16.959Z,72.10
2019-04-20T04:26:54.854Z,72.00
2019-04-20T04:29:35.651Z,72.10
2019-04-20T04:32:25.049Z,72.40
2019-04-20T04:34:47.868Z,72.60
2019-04-20T04:37:20.569Z,72.30
2019-04-20T04:40:01.176Z,72.00
2019-04-20T04:42:37.778Z,72.10
2019-04-20T04:44:57.601Z,71.60
2019-04-20T04:47:23.927Z,71.40
2019-04-20T04:50:05.623Z,72.00
2019-04-20T04:52:43.152Z,72.40
2019-04-20T04:55:22.186Z,72.60
2019-04-20T04:57:45.388Z,72.70
2019-04-20T05:00:25.512Z,72.00
2019-04-20T05:03:02.020Z,71.50
2019-04-20T05:05:48.678Z,71.50
2019-04-20T05:08:15.438Z,70.20
2019-04-20T05:10:44.136Z,70.80
2019-04-20T05:13:17.827Z,70.40
2019-04-20T05:16:05.245Z,70.50
2019-04-20T05:18:51.703Z,70.70
2019-04-20T05:21:20.771Z,70.30
2019-04-20T05:23:53.587Z,70.40
2019-04-20T05:26:37.541Z,69.20
2019-04-20T05:29:03.451Z,68.60
2019-04-20T05:31:36.096Z,67.70
2019-04-20T05:34:25.704Z,67.60
2019-04-20T05:36:58.124Z,67.90
2019-04-20T05:39:38.178Z,66.80
2019-04-20T05:42:13.332Z,65.80
2019-04-20T05:44:49.853Z,65.80
2019-04-20T05:47:22.318Z,65.50
2019-04-20T05:49:56.071Z,66.10
2019-04-20T05:55:09.969Z,65.30
2019-04-20T05:57:46.260Z,66.50
2019-04-20T06:00:22.692Z,67.00
2019-04-20T06:02:56.005Z,66.80
2019-04-20T06:05:36.711Z,66.50
2019-04-20T06:08:05.190Z,65.90
2019-04-20T06:10:45.631Z,65.90
2019-04-20T06:13:17.296Z,65.60
2019-04-20T06:16:02.533Z,65.20
2019-04-20T06:18:38.074Z,63.70
2019-04-20T06:21:29.062Z,62.50
2019-04-20T06:23:59.497Z,63.50
2019-04-20T06:29:05.137Z,62.00
2019-04-20T06:31:40.983Z,62.00
2019-04-20T06:36:57.235Z,61.70
2019-04-20T06:44:41.383Z,62.70
2019-04-20T06:47:42.739Z,59.90
2019-04-20T06:50:00.419Z,60.60
2019-04-20T06:52:32.398Z,60.60
2019-04-20T06:57:45.090Z,60.70
2019-04-20T07:00:20.823Z,62.60
2019-04-20T07:02:53.931Z,62.20
2019-04-20T07:05:33.001Z,61.70
2019-04-20T07:08:31.465Z,59.70
2019-04-20T07:10:53.165Z,60.30
2019-04-20T07:13:11.598Z,60.60
2019-04-20T07:15:56.837Z,60.40
2019-04-20T07:18:43.530Z,57.10
2019-04-20T07:21:27.335Z,61.00
2019-04-20T07:24:00.238Z,58.70
2019-04-20T07:26:29.149Z,60.00
2019-04-20T07:29:11.801Z,59.40
2019-04-20T07:31:36.093Z,57.30
2019-04-20T07:34:15.702Z,59.20
2019-04-20T07:37:04.594Z,58.60
2019-04-20T07:39:28.100Z,57.00
2019-04-20T07:42:10.849Z,57.30
2019-04-20T07:44:41.420Z,58.40
2019-04-20T07:47:23.091Z,56.30
2019-04-20T07:49:46.985Z,56.10
2019-04-20T07:52:03.932Z,57.80
2019-04-20T07:55:19.110Z,57.20
2019-04-20T07:57:31.255Z,55.90
2019-04-20T08:00:08.530Z,56.60
2019-04-20T08:03:03.618Z,55.20
2019-04-20T08:05:34.280Z,54.60
2019-04-20T08:08:20.686Z,54.30
2019-04-20T08:10:51.504Z,51.70
2019-04-20T08:16:08.406Z,52.60
2019-04-20T08:18:48.717Z,50.50
2019-04-20T08:21:17.912Z,50.70
2019-04-20T08:23:54.158Z,52.80
2019-04-20T08:26:15.750Z,53.10
2019-04-20T08:28:51.908Z,52.10
2019-04-20T08:31:33.404Z,51.50
2019-04-20T08:34:28.122Z,50.80
2019-04-20T08:36:57.067Z,50.80
2019-04-20T08:39:45.111Z,50.40
2019-04-20T08:42:05.791Z,50.80
2019-04-20T08:47:35.128Z,50.40
2019-04-20T08:50:13.724Z,49.20
2019-04-20T08:55:19.604Z,50.90
2019-04-20T08:57:35.629Z,52.40
2019-04-20T09:00:11.066Z,51.00
2019-04-20T09:02:52.138Z,52.50
2019-04-20T09:05:32.971Z,52.30
2019-04-20T09:08:06.946Z,50.10
2019-04-20T09:10:49.583Z,50.90
2019-04-20T09:13:18.690Z,50.10
2019-04-20T09:15:42.543Z,50.10
2019-04-20T09:18:36.427Z,51.60
2019-04-20T09:21:15.462Z,50.00
2019-04-20T09:23:57.718Z,47.20
2019-04-20T09:26:35.006Z,47.30
2019-04-20T09:29:05.894Z,48.00
2019-04-20T09:31:43.753Z,47.90
2019-04-20T09:34:39.545Z,46.40
2019-04-20T09:37:27.931Z,45.70
2019-04-20T09:40:10.835Z,47.50
2019-04-20T09:42:22.752Z,46.80
2019-04-20T09:44:59.708Z,47.20
2019-04-20T09:47:36.820Z,48.90
2019-04-20T09:50:22.571Z,48.60
2019-04-20T09:53:01.275Z,47.80
2019-04-20T09:55:31.336Z,51.70
2019-04-20T09:58:04.926Z,49.50
2019-04-20T10:00:58.317Z,52.60
2019-04-20T10:03:20.472Z,51.90
2019-04-20T10:05:54.229Z,51.50
2019-04-20T10:08:29.251Z,51.00
2019-04-20T10:11:03.542Z,52.00
2019-04-20T10:13:38.329Z,50.50
2019-04-20T10:16:13.455Z,50.40
2019-04-20T10:18:51.692Z,50.60
2019-04-20T10:21:23.609Z,47.70
2019-04-20T10:23:58.810Z,48.00
2019-04-20T10:26:32.675Z,51.60
2019-04-20T10:29:07.729Z,47.70
2019-04-20T10:31:44.598Z,50.00
2019-04-20T10:34:18.026Z,49.00
2019-04-20T10:36:55.442Z,46.90
2019-04-20T10:39:30.923Z,44.80
2019-04-20T10:42:05.905Z,44.70
2019-04-20T10:44:40.973Z,42.30
2019-04-20T10:47:14.835Z,44.80
2019-04-20T10:49:49.274Z,47.30
2019-04-20T10:52:23.618Z,43.70
2019-04-20T10:54:58.524Z,45.70
2019-04-20T10:57:33.420Z,43.30
2019-04-20T11:00:09.992Z,41.90
2019-04-20T11:02:45.783Z,44.30
2019-04-20T11:05:24.505Z,43.20
2019-04-20T11:07:57.212Z,41.60
2019-04-20T11:10:46.838Z,45.20
2019-04-20T11:13:07.386Z,38.80
2019-04-20T11:15:42.197Z,41.80
2019-04-20T11:18:17.599Z,40.90
2019-04-20T11:20:51.449Z,39.90
2019-04-20T11:23:26.511Z,39.80
2019-04-20T11:26:00.364Z,40.40
2019-04-20T11:28:34.408Z,41.50
2019-04-20T11:31:08.212Z,42.70
2019-04-20T11:33:42.542Z,43.00
2019-04-20T11:36:17.119Z,43.90
2019-04-20T11:38:51.222Z,42.60
2019-04-20T11:41:26.075Z,44.10
2019-04-20T11:44:00.384Z,45.10
2019-04-20T11:46:34.564Z,43.30
2019-04-20T11:49:09.671Z,40.90
2019-04-20T11:51:43.559Z,44.70
2019-04-20T11:54:18.596Z,40.60
2019-04-20T11:56:53.298Z,39.70
2019-04-20T11:59:27.442Z,41.70
2019-04-20T12:02:10.784Z,38.90
2019-04-20T12:04:51.972Z,41.10
2019-04-20T12:07:22.616Z,40.40
2019-04-20T12:09:59.434Z,38.70
2019-04-20T12:12:40.022Z,41.00
2019-04-20T12:15:08.554Z,39.90
2019-04-20T12:17:42.370Z,40.50
2019-04-20T12:20:16.714Z,40.20
2019-04-20T12:22:50.527Z,41.40
2019-04-20T12:25:24.271Z,42.00
2019-04-20T12:28:00.587Z,43.70
2019-04-20T12:30:33.556Z,46.60
2019-04-20T12:33:07.553Z,45.30
2019-04-20T12:35:42.565Z,47.50
2019-04-20T12:38:17.143Z,44.30
2019-04-20T12:40:52.357Z,41.40
2019-04-20T12:43:27.676Z,42.30
2019-04-20T12:46:02.218Z,44.30
2019-04-20T12:48:36.056Z,43.20
2019-04-20T12:51:11.292Z,44.70
2019-04-20T12:53:45.079Z,41.30
2019-04-20T12:56:18.723Z,44.40
2019-04-20T12:58:53.627Z,42.50
2019-04-20T13:01:28.036Z,44.40
2019-04-20T13:04:04.479Z,44.20
2019-04-20T13:06:38.967Z,44.30
2019-04-20T13:09:12.896Z,44.10
2019-04-20T13:12:09.805Z,42.60
2019-04-20T13:14:56.633Z,43.00
2019-04-20T13:17:30.516Z,43.60
2019-04-20T13:20:07.898Z,45.40
2019-04-20T13:22:41.635Z,42.60
2019-04-20T13:25:16.862Z,41.90
2019-04-20T13:27:51.005Z,43.70
2019-04-20T13:30:25.890Z,45.00
2019-04-20T13:32:59.719Z,44.50
2019-04-20T13:35:34.320Z,43.60
2019-04-20T13:38:08.123Z,44.30
2019-04-20T13:40:41.876Z,44.60
2019-04-20T13:43:15.624Z,44.10
2019-04-20T13:45:49.336Z,44.00
2019-04-20T13:48:23.027Z,42.70
2019-04-20T13:50:58.152Z,43.20
2019-04-20T13:53:32.965Z,44.90
2019-04-20T13:56:07.845Z,42.60
2019-04-20T13:58:43.617Z,45.30
2019-04-20T14:01:19.078Z,45.40
2019-04-20T14:04:06.820Z,44.30
2019-04-20T14:06:41.474Z,44.60
2019-04-20T14:09:15.207Z,48.30
2019-04-20T14:11:49.474Z,47.40
2019-04-20T14:14:23.483Z,47.70
2019-04-20T14:16:57.199Z,45.60
2019-04-20T14:19:31.433Z,50.00
2019-04-20T14:22:06.125Z,50.20
2019-04-20T14:24:42.611Z,49.70
2019-04-20T14:27:17.068Z,47.30
2019-04-20T14:29:51.058Z,49.40
2019-04-20T14:32:25.027Z,48.60
2019-04-20T14:34:58.866Z,47.50
2019-04-20T14:37:33.001Z,49.40
2019-04-20T14:40:08.454Z,50.70
2019-04-20T14:42:47.792Z,50.90
2019-04-20T14:45:18.598Z,52.50
2019-04-20T14:47:52.281Z,51.90
2019-04-20T14:50:26.035Z,49.40
2019-04-20T14:52:59.859Z,49.30
2019-04-20T14:55:33.603Z,48.80
2019-04-20T14:58:08.955Z,52.00
2019-04-20T15:00:58.856Z,49.60
2019-04-20T15:03:38.331Z,51.70
2019-04-20T15:06:12.095Z,51.60
2019-04-20T15:08:45.804Z,51.20
2019-04-20T15:11:20.853Z,53.20
2019-04-20T15:13:54.563Z,52.40
2019-04-20T15:16:28.720Z,52.80
2019-04-20T15:19:05.284Z,50.90
2019-04-20T15:21:41.773Z,52.70
2019-04-20T15:24:15.634Z,52.20
2019-04-20T15:30:11.954Z,50.50
2019-04-20T15:35:40.050Z,51.00
2019-04-20T15:38:13.748Z,52.00
2019-04-20T15:40:47.517Z,52.20
2019-04-20T15:43:24.372Z,52.60
2019-04-20T15:45:57.303Z,52.20
2019-04-20T15:48:32.178Z,53.50
2019-04-20T15:51:05.963Z,55.00
2019-04-20T15:53:39.867Z,52.10
2019-04-20T15:56:14.459Z,53.60
2019-04-20T15:58:48.435Z,53.70
2019-04-20T16:01:23.845Z,53.90
2019-04-20T16:04:05.555Z,53.60
2019-04-20T16:06:39.391Z,52.00
2019-04-20T16:09:14.259Z,51.60
2019-04-20T16:11:48.893Z,52.60
2019-04-20T16:14:23.764Z,51.00
2019-04-20T16:16:58.278Z,52.60
2019-04-20T16:19:41.793Z,53.30
2019-04-20T16:22:07.911Z,54.00
2019-04-20T16:24:44.843Z,54.40
2019-04-20T16:27:29.721Z,54.70
2019-04-20T16:30:05.562Z,54.50
2019-04-20T16:32:40.556Z,56.60
2019-04-20T16:35:14.602Z,57.00
2019-04-20T16:37:48.607Z,56.30
2019-04-20T16:40:23.411Z,55.60
2019-04-20T16:42:58.518Z,57.60
2019-04-20T16:45:32.985Z,56.40
2019-04-20T16:48:06.896Z,57.90
2019-04-20T16:50:42.629Z,56.40
2019-04-20T16:53:17.047Z,56.90
2019-04-20T16:55:50.860Z,58.20
2019-04-20T16:58:25.810Z,57.50
2019-04-20T17:00:59.717Z,58.10
2019-04-20T17:03:44.353Z,58.20
2019-04-20T17:06:09.164Z,58.90
2019-04-20T17:08:44.524Z,59.30
2019-04-20T17:11:18.292Z,58.90
2019-04-20T17:13:56.232Z,60.80
2019-04-20T17:16:28.003Z,62.00
2019-04-20T17:19:01.814Z,59.00
2019-04-20T17:21:35.965Z,60.50
2019-04-20T17:24:11.336Z,60.80
2019-04-20T17:26:47.229Z,60.90
2019-04-20T17:29:23.943Z,60.60
2019-04-20T17:32:05.586Z,60.60
2019-04-20T17:34:53.871Z,60.80
2019-04-20T17:37:15.004Z,63.20
2019-04-20T17:40:12.837Z,62.60
2019-04-20T17:42:42.300Z,62.00
2019-04-20T17:45:06.682Z,63.50
2019-04-20T17:47:51.285Z,62.00
2019-04-20T17:50:24.497Z,62.00
2019-04-20T17:53:02.781Z,62.00
2019-04-20T17:55:32.307Z,61.60
2019-04-20T17:58:01.665Z,61.10
2019-04-20T18:00:51.127Z,61.80
2019-04-20T18:04:00.430Z,62.80
2019-04-20T18:06:21.560Z,62.80
2019-04-20T18:08:56.415Z,62.60
2019-04-20T18:11:16.706Z,63.70
2019-04-20T18:13:49.301Z,63.50
2019-04-20T18:16:46.972Z,63.50
2019-04-20T18:19:10.873Z,63.90
2019-04-20T18:21:43.580Z,63.80
2019-04-20T18:24:41.252Z,64.50
2019-04-20T18:27:14.161Z,64.80
2019-04-20T18:29:45.513Z,64.50
2019-04-20T18:32:20.223Z,65.70
2019-04-20T18:34:59.184Z,66.30
2019-04-20T18:37:32.621Z,66.20
2019-04-20T18:40:12.438Z,65.60
2019-04-20T18:42:45.628Z,65.20
2019-04-20T18:45:38.128Z,66.70
2019-04-20T18:48:14.658Z,67.20
2019-04-20T18:50:35.575Z,68.20
2019-04-20T18:53:05.884Z,68.50
2019-04-20T18:55:47.047Z,69.40
2019-04-20T18:58:15.301Z,69.50
2019-04-20T19:00:51.781Z,68.90
2019-04-20T19:03:31.160Z,69.00
2019-04-20T19:06:00.167Z,69.40
2019-04-20T19:08:40.415Z,69.90
2019-04-20T19:11:14.575Z,69.70
2019-04-20T19:13:49.820Z,69.30
2019-04-20T19:16:33.423Z,69.30
2019-04-20T19:19:19.440Z,69.40
2019-04-20T19:21:41.302Z,69.80
2019-04-20T19:24:18.276Z,69.60
2019-04-20T19:26:55.620Z,69.60
2019-04-20T19:29:33.375Z,69.40
2019-04-20T19:32:19.533Z,69.10
2019-04-20T19:34:50.099Z,69.00
2019-04-20T19:37:23.201Z,69.20
2019-04-20T19:40:02.881Z,69.50
2019-04-20T19:42:34.719Z,68.90
2019-04-20T19:45:27.769Z,68.50
2019-04-20T19:47:51.193Z,68.70
2019-04-20T19:50:35.626Z,69.00
2019-04-20T19:53:11.168Z,68.90
2019-04-20T19:55:40.511Z,69.50
2019-04-20T19:58:13.331Z,70.00
2019-04-20T20:00:55.382Z,71.10
2019-04-20T20:03:29.958Z,72.50
2019-04-20T20:06:03.992Z,72.90
2019-04-20T20:08:39.977Z,72.90
2019-04-20T20:11:21.227Z,73.50
2019-04-20T20:13:53.508Z,72.90
2019-04-20T20:16:33.671Z,72.90
2019-04-20T20:19:08.446Z,72.70
2019-04-20T20:21:50.601Z,72.70
2019-04-20T20:24:12.278Z,71.50
2019-04-20T20:26:52.717Z,70.70
2019-04-20T20:29:30.460Z,70.20
2019-04-20T20:32:11.942Z,69.20
2019-04-20T20:34:38.276Z,68.70
2019-04-20T20:37:11.084Z,68.10
2019-04-20T20:39:53.626Z,67.80
2019-04-20T20:42:30.490Z,67.40
2019-04-20T20:45:06.965Z,66.80
2019-04-20T20:47:49.361Z,66.70
2019-04-20T20:50:28.436Z,66.70
2019-04-20T20:52:54.840Z,66.70
2019-04-20T20:55:29.436Z,66.30
2019-04-20T20:58:01.781Z,66.80
2019-04-20T21:00:38.812Z,67.40
2019-04-20T21:03:09.176Z,67.70
2019-04-20T21:05:41.847Z,68.00
2019-04-20T21:08:15.725Z,67.60
2019-04-20T21:10:50.958Z,67.30
2019-04-20T21:13:26.557Z,67.10
2019-04-20T21:16:07.118Z,67.10
2019-04-20T21:18:50.202Z,67.20
2019-04-20T21:21:23.076Z,67.50
2019-04-20T21:23:56.783Z,67.20
2019-04-20T21:26:30.491Z,66.90
2019-04-20T21:28:59.660Z,66.80
2019-04-20T21:31:34.382Z,67.10
2019-04-20T21:34:13.131Z,66.50
2019-04-20T21:36:43.578Z,66.90
2019-04-20T21:39:30.131Z,66.80
2019-04-20T21:41:57.212Z,66.70
2019-04-20T21:44:33.669Z,66.70
2019-04-20T21:47:04.875Z,66.90
2019-04-20T21:49:51.999Z,67.00
2019-04-20T21:52:21.272Z,67.10
2019-04-20T21:54:49.949Z,67.70
2019-04-20T21:57:24.190Z,68.20
2019-04-20T22:00:08.615Z,68.40
2019-04-20T22:02:41.286Z,68.30
2019-04-20T22:05:09.507Z,68.30
2019-04-20T22:07:44.252Z,68.20
2019-04-20T22:10:23.830Z,68.00
2019-04-20T22:12:58.700Z,68.00
2019-04-20T22:15:33.302Z,67.70
2019-04-20T22:18:07.758Z,67.50
2019-04-20T22:20:54.506Z,67.40
2019-04-20T22:23:32.837Z,67.60
2019-04-20T22:26:03.878Z,67.50
2019-04-20T22:28:26.539Z,68.00
2019-04-20T22:31:00.369Z,68.90
2019-04-20T22:33:41.191Z,69.80
2019-04-20T22:36:14.522Z,71.00
2019-04-20T22:39:09.541Z,71.60
2019-04-20T22:41:52.461Z,71.70
2019-04-20T22:44:24.507Z,71.60
2019-04-20T22:46:56.745Z,72.00
2019-04-20T22:49:47.283Z,71.90
2019-04-20T22:52:23.333Z,71.90
2019-04-20T22:54:54.374Z,71.60
2019-04-20T22:57:31.803Z,71.00
2019-04-20T23:00:00.569Z,70.90
2019-04-20T23:02:28.622Z,70.70
2019-04-20T23:05:03.023Z,70.80
2019-04-20T23:07:36.948Z,70.40
2019-04-20T23:10:11.244Z,69.60
2019-04-20T23:12:50.987Z,68.80
2019-04-20T23:15:20.546Z,67.40
2019-04-20T23:17:54.283Z,66.90
2019-04-20T23:20:32.668Z,66.80
2019-04-20T23:23:03.453Z,67.30
2019-04-20T23:25:37.162Z,67.00
2019-04-20T23:28:14.729Z,66.70
2019-04-20T23:30:47.366Z,66.80
2019-04-20T23:33:22.083Z,66.70
2019-04-20T23:35:59.819Z,66.80
2019-04-20T23:38:32.718Z,66.80
2019-04-20T23:41:06.391Z,66.90
2019-04-20T23:43:43.062Z,66.70
2019-04-20T23:46:31.466Z,66.40
2019-04-20T23:49:27.772Z,66.40
2019-04-20T23:52:26.452Z,66.30
2019-04-20T23:54:37.184Z,66.10
2019-04-20T23:57:09.755Z,65.50
2019-04-20T23:59:46.250Z,65.70
